sensor_id;sensor_type;location;lat;lon;timestamp;pressure;altitude;pressure_sealevel;temperature;humidity
61554;BME280;47425;51.976;5.326;2023-05-29T00:00:45;102292.81;;;12.91;62.50
61554;BME280;47425;51.976;5.326;2023-05-29T00:03:13;102306.81;;;12.91;62.40
61554;BME280;47425;51.976;5.326;2023-05-29T00:05:40;102284.09;;;12.86;62.03
61554;BME280;47425;51.976;5.326;2023-05-29T00:08:07;102302.50;;;12.83;64.43
61554;BME280;47425;51.976;5.326;2023-05-29T00:10:35;102303.41;;;12.80;62.72
61554;BME280;47425;51.976;5.326;2023-05-29T00:13:02;102306.91;;;12.81;63.47
61554;BME280;47425;51.976;5.326;2023-05-29T00:15:29;102306.91;;;12.81;62.26
61554;BME280;47425;51.976;5.326;2023-05-29T00:17:57;102289.44;;;12.73;63.40
61554;BME280;47425;51.976;5.326;2023-05-29T00:20:25;102298.22;;;12.69;63.04
61554;BME280;47425;51.976;5.326;2023-05-29T00:22:51;102298.13;;;12.83;64.49
61554;BME280;47425;51.976;5.326;2023-05-29T00:25:18;102302.50;;;12.86;62.02
61554;BME280;47425;51.976;5.326;2023-05-29T00:27:48;102293.91;;;12.56;62.30
61554;BME280;47425;51.976;5.326;2023-05-29T00:30:15;102303.53;;;12.54;62.49
61554;BME280;47425;51.976;5.326;2023-05-29T00:32:42;102304.44;;;12.54;63.66
61554;BME280;47425;51.976;5.326;2023-05-29T00:35:09;102305.31;;;12.49;63.04
61554;BME280;47425;51.976;5.326;2023-05-29T00:37:38;102299.19;;;12.48;63.18
61554;BME280;47425;51.976;5.326;2023-05-29T00:40:06;102300.84;;;12.68;63.71
61554;BME280;47425;51.976;5.326;2023-05-29T00:42:33;102300.06;;;12.47;62.48
61554;BME280;47425;51.976;5.326;2023-05-29T00:45:01;102298.31;;;12.45;63.50
61554;BME280;47425;51.976;5.326;2023-05-29T00:47:28;102301.88;;;12.44;62.39
61554;BME280;47425;51.976;5.326;2023-05-29T00:49:55;102292.22;;;12.44;62.34
61554;BME280;47425;51.976;5.326;2023-05-29T00:52:24;102300.97;;;12.41;63.50
61554;BME280;47425;51.976;5.326;2023-05-29T00:54:54;102313.25;;;12.38;62.81
61554;BME280;47425;51.976;5.326;2023-05-29T00:57:21;102306.22;;;12.41;63.92
61554;BME280;47425;51.976;5.326;2023-05-29T00:59:48;102310.56;;;12.49;63.10
61554;BME280;47425;51.976;5.326;2023-05-29T01:02:19;102322.00;;;12.41;64.01
61554;BME280;47425;51.976;5.326;2023-05-29T01:04:46;102330.75;;;12.45;63.57
61554;BME280;47425;51.976;5.326;2023-05-29T01:07:14;102326.34;;;12.47;62.52
61554;BME280;47425;51.976;5.326;2023-05-29T01:09:41;102333.38;;;12.42;62.13
61554;BME280;47425;51.976;5.326;2023-05-29T01:12:19;102320.31;;;12.20;63.03
61554;BME280;47425;51.976;5.326;2023-05-29T01:15:01;102316.78;;;12.32;63.21
61554;BME280;47425;51.976;5.326;2023-05-29T01:17:39;102319.41;;;12.32;62.05
61554;BME280;47425;51.976;5.326;2023-05-29T01:20:21;102324.66;;;12.34;63.07
61554;BME280;47425;51.976;5.326;2023-05-29T01:23:06;102342.22;;;12.24;62.62
61554;BME280;47425;51.976;5.326;2023-05-29T01:25:49;102344.88;;;12.04;62.64
61554;BME280;47425;51.976;5.326;2023-05-29T01:28:21;102336.16;;;11.97;63.06
61554;BME280;47425;51.976;5.326;2023-05-29T01:30:54;102342.28;;;12.01;64.86
61554;BME280;47425;51.976;5.326;2023-05-29T01:33:21;102340.50;;;12.07;63.00
61554;BME280;47425;51.976;5.326;2023-05-29T01:35:50;102345.75;;;11.89;63.00
61554;BME280;47425;51.976;5.326;2023-05-29T01:38:16;102344.88;;;11.87;64.51
61554;BME280;47425;51.976;5.326;2023-05-29T01:41:03;102356.25;;;11.89;64.61
61554;BME280;47425;51.976;5.326;2023-05-29T01:43:33;102345.75;;;11.90;62.90
61554;BME280;47425;51.976;5.326;2023-05-29T01:46:00;102360.63;;;12.05;64.54
61554;BME280;47425;51.976;5.326;2023-05-29T01:48:27;102362.38;;;12.16;63.13
61554;BME280;47425;51.976;5.326;2023-05-29T01:50:56;102351.00;;;12.12;62.96
61554;BME280;47425;51.976;5.326;2023-05-29T01:53:24;102353.59;;;12.14;62.70
61554;BME280;47425;51.976;5.326;2023-05-29T01:55:51;102359.75;;;12.13;62.61
61554;BME280;47425;51.976;5.326;2023-05-29T01:58:18;102352.78;;;11.99;62.38
61554;BME280;47425;51.976;5.326;2023-05-29T02:01:08;102351.00;;;12.01;62.60
61554;BME280;47425;51.976;5.326;2023-05-29T02:03:35;102354.53;;;11.99;62.05
61554;BME280;47425;51.976;5.326;2023-05-29T02:06:01;102358.00;;;11.87;62.41
61554;BME280;47425;51.976;5.326;2023-05-29T02:08:28;102348.38;;;11.83;63.79
61554;BME280;47425;51.976;5.326;2023-05-29T02:10:56;102347.50;;;11.84;61.93
61554;BME280;47425;51.976;5.326;2023-05-29T02:13:25;102365.03;;;11.68;62.25
61554;BME280;47425;51.976;5.326;2023-05-29T02:15:53;102357.19;;;11.52;63.38
61554;BME280;47425;51.976;5.326;2023-05-29T02:18:23;102358.03;;;11.50;63.97
61554;BME280;47425;51.976;5.326;2023-05-29T02:20:51;102366.78;;;11.53;64.05
61554;BME280;47425;51.976;5.326;2023-05-29T02:23:21;102369.41;;;11.50;62.93
61554;BME280;47425;51.976;5.326;2023-05-29T02:25:50;102358.03;;;11.45;63.32
61554;BME280;47425;51.976;5.326;2023-05-29T02:28:17;102354.53;;;11.55;64.03
61554;BME280;47425;51.976;5.326;2023-05-29T02:30:44;102351.03;;;11.53;63.49
61554;BME280;47425;51.976;5.326;2023-05-29T02:33:11;102337.91;;;11.64;65.35
61554;BME280;47425;51.976;5.326;2023-05-29T02:35:39;102351.03;;;11.72;64.93
61554;BME280;47425;51.976;5.326;2023-05-29T02:38:06;102349.28;;;11.68;63.02
61554;BME280;47425;51.976;5.326;2023-05-29T02:40:33;102353.69;;;11.66;64.28
61554;BME280;47425;51.976;5.326;2023-05-29T02:43:00;102351.91;;;11.65;62.68
61554;BME280;47425;51.976;5.326;2023-05-29T02:45:26;102360.66;;;11.62;64.17
61554;BME280;47425;51.976;5.326;2023-05-29T02:47:53;102364.16;;;11.67;63.08
61554;BME280;47425;51.976;5.326;2023-05-29T02:50:20;102364.16;;;11.50;63.46
61554;BME280;47425;51.976;5.326;2023-05-29T02:52:48;102356.28;;;11.39;64.03
61554;BME280;47425;51.976;5.326;2023-05-29T02:55:16;102355.41;;;11.44;65.64
61554;BME280;47425;51.976;5.326;2023-05-29T02:57:43;102359.78;;;11.40;63.32
61554;BME280;47425;51.976;5.326;2023-05-29T03:00:10;102355.41;;;11.31;64.64
61554;BME280;47425;51.976;5.326;2023-05-29T03:02:38;102366.78;;;11.39;64.58
61554;BME280;47425;51.976;5.326;2023-05-29T03:05:06;102354.53;;;11.46;63.34
61554;BME280;47425;51.976;5.326;2023-05-29T03:07:33;102368.53;;;11.54;65.08
61554;BME280;47425;51.976;5.326;2023-05-29T03:10:01;102376.38;;;11.57;63.30
61554;BME280;47425;51.976;5.326;2023-05-29T03:12:30;102371.16;;;11.44;64.45
61554;BME280;47425;51.976;5.326;2023-05-29T03:14:57;102371.13;;;11.36;65.06
61554;BME280;47425;51.976;5.326;2023-05-29T03:17:25;102371.16;;;11.39;65.11
61554;BME280;47425;51.976;5.326;2023-05-29T03:19:55;102355.41;;;11.30;63.57
61554;BME280;47425;51.976;5.326;2023-05-29T03:22:24;102367.63;;;11.26;63.30
61554;BME280;47425;51.976;5.326;2023-05-29T03:24:51;102367.63;;;11.29;66.48
61554;BME280;47425;51.976;5.326;2023-05-29T03:27:19;102355.41;;;11.39;64.34
61554;BME280;47425;51.976;5.326;2023-05-29T03:29:54;102357.13;;;11.20;63.59
61554;BME280;47425;51.976;5.326;2023-05-29T03:32:22;102358.00;;;11.23;64.32
61554;BME280;47425;51.976;5.326;2023-05-29T03:34:48;102358.88;;;11.18;63.67
61554;BME280;47425;51.976;5.326;2023-05-29T03:37:15;102358.00;;;11.11;63.52
61554;BME280;47425;51.976;5.326;2023-05-29T03:39:43;102361.50;;;11.05;64.26
61554;BME280;47425;51.976;5.326;2023-05-29T03:42:26;102367.63;;;11.11;64.19
61554;BME280;47425;51.976;5.326;2023-05-29T03:44:54;102365.91;;;11.17;65.34
61554;BME280;47425;51.976;5.326;2023-05-29T03:47:22;102361.53;;;11.27;65.21
61554;BME280;47425;51.976;5.326;2023-05-29T03:49:51;102371.13;;;11.27;65.01
61554;BME280;47425;51.976;5.326;2023-05-29T03:52:18;102368.50;;;11.22;64.49
61554;BME280;47425;51.976;5.326;2023-05-29T03:54:45;102364.97;;;11.09;65.86
61554;BME280;47425;51.976;5.326;2023-05-29T03:57:12;102372.88;;;11.17;64.75
61554;BME280;47425;51.976;5.326;2023-05-29T03:59:41;102373.75;;;11.10;65.29
61554;BME280;47425;51.976;5.326;2023-05-29T04:02:07;102367.59;;;11.07;65.78
61554;BME280;47425;51.976;5.326;2023-05-29T04:04:34;102381.63;;;11.25;64.60
61554;BME280;47425;51.976;5.326;2023-05-29T04:07:01;102379.00;;;11.22;63.63
61554;BME280;47425;51.976;5.326;2023-05-29T04:09:28;102383.34;;;11.20;63.38
61554;BME280;47425;51.976;5.326;2023-05-29T04:11:55;102376.34;;;11.11;64.28
61554;BME280;47425;51.976;5.326;2023-05-29T04:14:21;102357.13;;;11.04;63.49
61554;BME280;47425;51.976;5.326;2023-05-29T04:16:51;102385.09;;;11.19;63.81
61554;BME280;47425;51.976;5.326;2023-05-29T04:19:17;102377.25;;;11.15;63.00
61554;BME280;47425;51.976;5.326;2023-05-29T04:21:44;102381.63;;;11.19;63.19
61554;BME280;47425;51.976;5.326;2023-05-29T04:24:13;102371.16;;;11.30;63.25
61554;BME280;47425;51.976;5.326;2023-05-29T04:26:41;102379.91;;;11.47;62.78
61554;BME280;47425;51.976;5.326;2023-05-29T04:29:08;102389.53;;;11.53;63.30
61554;BME280;47425;51.976;5.326;2023-05-29T04:31:38;102379.03;;;11.61;62.84
61554;BME280;47425;51.976;5.326;2023-05-29T04:34:07;102384.28;;;11.65;63.06
61554;BME280;47425;51.976;5.326;2023-05-29T04:36:33;102380.75;;;11.60;62.07
61554;BME280;47425;51.976;5.326;2023-05-29T04:39:08;102387.78;;;11.70;62.89
61554;BME280;47425;51.976;5.326;2023-05-29T04:41:36;102392.16;;;11.88;61.36
61554;BME280;47425;51.976;5.326;2023-05-29T04:44:07;102391.25;;;12.02;62.38
61554;BME280;47425;51.976;5.326;2023-05-29T04:46:43;102412.22;;;12.34;60.59
61554;BME280;47425;51.976;5.326;2023-05-29T04:49:14;102411.34;;;12.46;59.53
61554;BME280;47425;51.976;5.326;2023-05-29T04:51:40;102401.69;;;12.45;59.59
61554;BME280;47425;51.976;5.326;2023-05-29T04:54:09;102406.09;;;12.38;59.12
61554;BME280;47425;51.976;5.326;2023-05-29T04:56:37;102415.72;;;12.33;59.37
61554;BME280;47425;51.976;5.326;2023-05-29T04:59:06;102407.00;;;12.17;60.64
61554;BME280;47425;51.976;5.326;2023-05-29T05:01:34;102420.97;;;12.29;59.55
61554;BME280;47425;51.976;5.326;2023-05-29T05:04:02;102417.44;;;12.50;59.48
61554;BME280;47425;51.976;5.326;2023-05-29T05:06:30;102422.69;;;12.54;60.76
61554;BME280;47425;51.976;5.326;2023-05-29T05:08:57;102421.72;;;12.79;59.47
61554;BME280;47425;51.976;5.326;2023-05-29T05:11:26;102423.47;;;12.76;61.10
61554;BME280;47425;51.976;5.326;2023-05-29T05:13:53;102420.84;;;12.69;58.49
61554;BME280;47425;51.976;5.326;2023-05-29T05:16:20;102430.56;;;12.48;58.00
61554;BME280;47425;51.976;5.326;2023-05-29T05:18:47;102417.44;;;12.47;59.26
61554;BME280;47425;51.976;5.326;2023-05-29T05:21:16;102409.59;;;12.37;59.23
61554;BME280;47425;51.976;5.326;2023-05-29T05:23:45;102414.84;;;12.37;59.97
61554;BME280;47425;51.976;5.326;2023-05-29T05:26:12;102407.75;;;12.66;59.25
61554;BME280;47425;51.976;5.326;2023-05-29T05:28:38;102419.19;;;12.52;59.04
61554;BME280;47425;51.976;5.326;2023-05-29T05:31:06;102417.41;;;12.51;57.86
61554;BME280;47425;51.976;5.326;2023-05-29T05:33:35;102415.69;;;12.44;59.22
61554;BME280;47425;51.976;5.326;2023-05-29T05:36:02;102424.41;;;12.54;59.52
61554;BME280;47425;51.976;5.326;2023-05-29T05:38:30;102424.41;;;12.63;58.92
61554;BME280;47425;51.976;5.326;2023-05-29T05:40:59;102419.13;;;12.71;57.36
61554;BME280;47425;51.976;5.326;2023-05-29T05:43:30;102430.50;;;12.70;58.70
61554;BME280;47425;51.976;5.326;2023-05-29T05:46:04;102436.63;;;12.73;58.86
61554;BME280;47425;51.976;5.326;2023-05-29T05:48:34;102436.63;;;12.73;56.48
61554;BME280;47425;51.976;5.326;2023-05-29T05:51:16;102431.38;;;12.75;59.05
61554;BME280;47425;51.976;5.326;2023-05-29T05:53:43;102439.28;;;12.66;56.15
61554;BME280;47425;51.976;5.326;2023-05-29T05:56:11;102438.44;;;12.64;56.94
61554;BME280;47425;51.976;5.326;2023-05-29T05:58:39;102442.84;;;12.57;56.25
61554;BME280;47425;51.976;5.326;2023-05-29T06:01:07;102434.94;;;12.54;57.03
61554;BME280;47425;51.976;5.326;2023-05-29T06:03:35;102431.44;;;12.53;56.91
61554;BME280;47425;51.976;5.326;2023-05-29T06:06:06;102453.28;;;12.77;56.42
61554;BME280;47425;51.976;5.326;2023-05-29T06:08:37;102441.84;;;12.80;56.61
61554;BME280;47425;51.976;5.326;2023-05-29T06:11:07;102440.94;;;12.91;56.03
61554;BME280;47425;51.976;5.326;2023-05-29T06:13:37;102445.31;;;12.92;55.59
61554;BME280;47425;51.976;5.326;2023-05-29T06:16:10;102433.94;;;12.89;56.91
61554;BME280;47425;51.976;5.326;2023-05-29T06:18:38;102439.13;;;13.06;55.75
61554;BME280;47425;51.976;5.326;2023-05-29T06:21:05;102448.72;;;13.15;57.02
61554;BME280;47425;51.976;5.326;2023-05-29T06:23:33;102432.06;;;13.14;55.29
61554;BME280;47425;51.976;5.326;2023-05-29T06:26:02;102446.91;;;13.23;55.41
61554;BME280;47425;51.976;5.326;2023-05-29T06:28:29;102444.25;;;13.29;55.87
61554;BME280;47425;51.976;5.326;2023-05-29T06:30:57;102451.28;;;13.25;52.97
61554;BME280;47425;51.976;5.326;2023-05-29T06:33:24;102444.31;;;13.18;55.14
61554;BME280;47425;51.976;5.326;2023-05-29T06:35:52;102446.00;;;13.24;53.47
61554;BME280;47425;51.976;5.326;2023-05-29T06:38:18;102441.63;;;13.27;53.98
61554;BME280;47425;51.976;5.326;2023-05-29T06:40:45;102455.66;;;13.30;53.09
61554;BME280;47425;51.976;5.326;2023-05-29T06:43:13;102446.84;;;13.35;53.74
61554;BME280;47425;51.976;5.326;2023-05-29T06:45:46;102447.66;;;13.48;53.52
61554;BME280;47425;51.976;5.326;2023-05-29T06:48:14;102454.47;;;13.79;52.82
61554;BME280;47425;51.976;5.326;2023-05-29T06:50:41;102460.59;;;13.82;52.88
61554;BME280;47425;51.976;5.326;2023-05-29T06:53:36;102460.41;;;13.99;52.96
61554;BME280;47425;51.976;5.326;2023-05-29T06:56:05;102457.50;;;14.33;52.30
61554;BME280;47425;51.976;5.326;2023-05-29T06:58:33;102467.03;;;14.45;51.59
61554;BME280;47425;51.976;5.326;2023-05-29T07:01:03;102463.50;;;14.48;51.50
61554;BME280;47425;51.976;5.326;2023-05-29T07:03:33;102482.13;;;14.29;53.90
61554;BME280;47425;51.976;5.326;2023-05-29T07:06:04;102475.81;;;14.46;51.27
61554;BME280;47425;51.976;5.326;2023-05-29T07:08:32;102466.00;;;14.58;50.32
61554;BME280;47425;51.976;5.326;2023-05-29T07:10:59;102473.13;;;14.52;50.06
61554;BME280;47425;51.976;5.326;2023-05-29T07:13:46;102482.84;;;14.43;51.59
61554;BME280;47425;51.976;5.326;2023-05-29T07:16:13;102476.88;;;14.27;50.06
61554;BME280;47425;51.976;5.326;2023-05-29T07:18:43;102482.22;;;14.18;52.33
61554;BME280;47425;51.976;5.326;2023-05-29T07:21:11;102475.16;;;14.23;50.25
61554;BME280;47425;51.976;5.326;2023-05-29T07:23:39;102474.22;;;14.26;50.57
61554;BME280;47425;51.976;5.326;2023-05-29T07:26:06;102474.00;;;14.51;51.54
61554;BME280;47425;51.976;5.326;2023-05-29T07:28:32;102469.84;;;14.28;51.11
61554;BME280;47425;51.976;5.326;2023-05-29T07:31:00;102480.13;;;14.51;53.07
61554;BME280;47425;51.976;5.326;2023-05-29T07:33:27;102478.59;;;14.29;49.19
61554;BME280;47425;51.976;5.326;2023-05-29T07:35:57;102467.41;;;14.06;51.71
61554;BME280;47425;51.976;5.326;2023-05-29T07:38:24;102462.66;;;14.42;55.60
61554;BME280;47425;51.976;5.326;2023-05-29T07:40:52;102465.16;;;14.55;51.80
61554;BME280;47425;51.976;5.326;2023-05-29T07:43:29;102482.16;;;14.24;50.71
61554;BME280;47425;51.976;5.326;2023-05-29T07:45:59;102475.28;;;14.08;50.24
61554;BME280;47425;51.976;5.326;2023-05-29T07:48:26;102470.06;;;14.03;49.93
61554;BME280;47425;51.976;5.326;2023-05-29T07:50:55;102468.34;;;13.98;50.39
61554;BME280;47425;51.976;5.326;2023-05-29T07:53:25;102474.03;;;14.46;51.90
61554;BME280;47425;51.976;5.326;2023-05-29T07:55:51;102475.66;;;14.61;49.45
61554;BME280;47425;51.976;5.326;2023-05-29T07:58:19;102482.94;;;14.33;51.65
61554;BME280;47425;51.976;5.326;2023-05-29T08:03:32;102480.16;;;14.50;50.47
61554;BME280;47425;51.976;5.326;2023-05-29T08:06:08;102480.91;;;14.66;50.38
61554;BME280;47425;51.976;5.326;2023-05-29T08:08:37;102487.06;;;14.63;49.54
61554;BME280;47425;51.976;5.326;2023-05-29T08:11:04;102478.25;;;14.67;49.68
61554;BME280;47425;51.976;5.326;2023-05-29T08:13:30;102474.66;;;14.73;50.76
61554;BME280;47425;51.976;5.326;2023-05-29T08:15:57;102491.50;;;14.58;49.34
61554;BME280;47425;51.976;5.326;2023-05-29T08:18:26;102499.63;;;14.36;49.11
61554;BME280;47425;51.976;5.326;2023-05-29T08:20:53;102494.31;;;14.41;49.28
61554;BME280;47425;51.976;5.326;2023-05-29T08:23:19;102488.94;;;14.52;54.00
61554;BME280;47425;51.976;5.326;2023-05-29T08:25:49;102489.44;;;14.86;47.58
61554;BME280;47425;51.976;5.326;2023-05-29T08:28:16;102486.91;;;14.79;49.61
61554;BME280;47425;51.976;5.326;2023-05-29T08:30:42;102485.56;;;15.15;50.98
61554;BME280;47425;51.976;5.326;2023-05-29T08:33:09;102494.22;;;15.26;47.53
61554;BME280;47425;51.976;5.326;2023-05-29T08:35:37;102483.69;;;15.25;49.16
61554;BME280;47425;51.976;5.326;2023-05-29T08:38:03;102496.13;;;15.15;46.52
61554;BME280;47425;51.976;5.326;2023-05-29T08:40:30;102475.59;;;15.36;46.74
61554;BME280;47425;51.976;5.326;2023-05-29T08:43:02;102505.63;;;15.29;46.81
61554;BME280;47425;51.976;5.326;2023-05-29T08:45:34;102496.00;;;15.26;47.19
61554;BME280;47425;51.976;5.326;2023-05-29T08:48:06;102496.75;;;15.34;46.29
61554;BME280;47425;51.976;5.326;2023-05-29T08:50:34;102490.84;;;15.15;46.35
61554;BME280;47425;51.976;5.326;2023-05-29T08:53:03;102492.09;;;15.52;48.79
61554;BME280;47425;51.976;5.326;2023-05-29T08:55:31;102479.16;;;15.92;47.71
61554;BME280;47425;51.976;5.326;2023-05-29T08:58:00;102494.31;;;15.83;45.96
61554;BME280;47425;51.976;5.326;2023-05-29T09:00:27;102492.81;;;15.65;47.19
61554;BME280;47425;51.976;5.326;2023-05-29T09:02:56;102501.34;;;15.84;45.83
61554;BME280;47425;51.976;5.326;2023-05-29T09:05:24;102502.75;;;15.44;45.56
61554;BME280;47425;51.976;5.326;2023-05-29T09:07:52;102500.88;;;15.52;46.45
61554;BME280;47425;51.976;5.326;2023-05-29T09:10:20;102499.09;;;15.54;45.59
61554;BME280;47425;51.976;5.326;2023-05-29T09:12:48;102507.13;;;15.47;46.36
61554;BME280;47425;51.976;5.326;2023-05-29T09:15:21;102504.34;;;15.56;46.22
61554;BME280;47425;51.976;5.326;2023-05-29T09:17:51;102506.03;;;15.61;46.40
61554;BME280;47425;51.976;5.326;2023-05-29T09:20:21;102503.13;;;15.78;46.81
61554;BME280;47425;51.976;5.326;2023-05-29T09:22:56;102496.06;;;15.84;44.67
61554;BME280;47425;51.976;5.326;2023-05-29T09:25:24;102496.84;;;15.89;46.32
61554;BME280;47425;51.976;5.326;2023-05-29T09:27:54;102500.63;;;15.71;44.42
61554;BME280;47425;51.976;5.326;2023-05-29T09:30:38;102499.19;;;15.48;44.92
61554;BME280;47425;51.976;5.326;2023-05-29T09:33:07;102489.81;;;15.27;44.97
61554;BME280;47425;51.976;5.326;2023-05-29T09:35:50;102501.97;;;15.40;45.24
61554;BME280;47425;51.976;5.326;2023-05-29T09:38:17;102495.66;;;15.49;46.68
61554;BME280;47425;51.976;5.326;2023-05-29T09:40:46;102490.97;;;15.70;47.01
61554;BME280;47425;51.976;5.326;2023-05-29T09:43:14;102493.38;;;15.85;44.91
61554;BME280;47425;51.976;5.326;2023-05-29T09:45:44;102495.41;;;15.66;44.42
61554;BME280;47425;51.976;5.326;2023-05-29T09:48:13;102484.63;;;15.83;46.24
61554;BME280;47425;51.976;5.326;2023-05-29T09:50:42;102490.56;;;15.96;45.60
61554;BME280;47425;51.976;5.326;2023-05-29T09:53:16;102485.38;;;15.91;44.06
61554;BME280;47425;51.976;5.326;2023-05-29T09:55:44;102488.00;;;15.91;45.16
61554;BME280;47425;51.976;5.326;2023-05-29T09:58:13;102485.31;;;15.94;43.99
61554;BME280;47425;51.976;5.326;2023-05-29T10:00:43;102482.63;;;15.96;43.37
61554;BME280;47425;51.976;5.326;2023-05-29T10:03:11;102478.53;;;15.76;43.87
61554;BME280;47425;51.976;5.326;2023-05-29T10:05:38;102477.25;;;16.02;43.58
61554;BME280;47425;51.976;5.326;2023-05-29T10:08:08;102476.41;;;16.00;44.31
61554;BME280;47425;51.976;5.326;2023-05-29T10:10:40;102486.38;;;16.34;44.52
61554;BME280;47425;51.976;5.326;2023-05-29T10:13:11;102486.34;;;16.37;44.04
61554;BME280;47425;51.976;5.326;2023-05-29T10:15:40;102480.25;;;16.32;42.56
61554;BME280;47425;51.976;5.326;2023-05-29T10:18:13;102482.88;;;16.34;42.55
61554;BME280;47425;51.976;5.326;2023-05-29T10:20:48;102490.56;;;16.46;43.33
61554;BME280;47425;51.976;5.326;2023-05-29T10:23:21;102483.06;;;16.70;41.82
61554;BME280;47425;51.976;5.326;2023-05-29T10:25:52;102493.78;;;17.07;42.73
61554;BME280;47425;51.976;5.326;2023-05-29T10:28:19;102484.91;;;17.10;40.01
61554;BME280;47425;51.976;5.326;2023-05-29T10:31:00;102483.41;;;16.98;41.46
61554;BME280;47425;51.976;5.326;2023-05-29T10:33:41;102482.66;;;16.91;40.72
61554;BME280;47425;51.976;5.326;2023-05-29T10:36:13;102478.34;;;16.86;42.17
61554;BME280;47425;51.976;5.326;2023-05-29T10:38:44;102484.59;;;16.82;40.65
61554;BME280;47425;51.976;5.326;2023-05-29T10:41:31;102478.50;;;17.22;42.20
61554;BME280;47425;51.976;5.326;2023-05-29T10:44:00;102475.03;;;17.18;40.50
61554;BME280;47425;51.976;5.326;2023-05-29T10:47:03;102469.28;;;16.99;41.68
61554;BME280;47425;51.976;5.326;2023-05-29T10:49:33;102478.31;;;16.87;40.75
61554;BME280;47425;51.976;5.326;2023-05-29T10:52:03;102476.66;;;16.82;40.89
61554;BME280;47425;51.976;5.326;2023-05-29T10:54:40;102471.81;;;17.04;42.49
61554;BME280;47425;51.976;5.326;2023-05-29T10:57:09;102475.66;;;17.30;41.02
61554;BME280;47425;51.976;5.326;2023-05-29T10:59:37;102459.50;;;17.01;42.43
61554;BME280;47425;51.976;5.326;2023-05-29T11:02:05;102464.03;;;17.37;43.58
61554;BME280;47425;51.976;5.326;2023-05-29T11:04:36;102471.50;;;17.57;42.94
61554;BME280;47425;51.976;5.326;2023-05-29T11:07:06;102466.75;;;17.34;40.89
61554;BME280;47425;51.976;5.326;2023-05-29T11:09:35;102468.22;;;17.47;40.13
61554;BME280;47425;51.976;5.326;2023-05-29T11:12:10;102462.91;;;17.47;40.50
61554;BME280;47425;51.976;5.326;2023-05-29T11:14:45;102461.38;;;17.37;41.92
61554;BME280;47425;51.976;5.326;2023-05-29T11:17:30;102458.25;;;17.19;40.74
61554;BME280;47425;51.976;5.326;2023-05-29T11:20:04;102461.72;;;17.59;42.25
61554;BME280;47425;51.976;5.326;2023-05-29T11:22:55;102465.38;;;17.91;40.44
61554;BME280;47425;51.976;5.326;2023-05-29T11:25:25;102469.28;;;17.76;40.97
61554;BME280;47425;51.976;5.326;2023-05-29T11:27:52;102467.06;;;17.57;40.58
61554;BME280;47425;51.976;5.326;2023-05-29T11:30:20;102471.63;;;17.88;42.08
61554;BME280;47425;51.976;5.326;2023-05-29T11:32:48;102463.66;;;17.88;39.67
61554;BME280;47425;51.976;5.326;2023-05-29T11:35:22;102463.72;;;17.87;39.83
61554;BME280;47425;51.976;5.326;2023-05-29T11:37:50;102467.13;;;17.93;39.63
61554;BME280;47425;51.976;5.326;2023-05-29T11:40:35;102461.41;;;17.73;41.18
61554;BME280;47425;51.976;5.326;2023-05-29T11:43:04;102451.94;;;17.63;39.52
61554;BME280;47425;51.976;5.326;2023-05-29T11:45:33;102456.66;;;17.51;39.94
61554;BME280;47425;51.976;5.326;2023-05-29T11:48:02;102455.69;;;17.54;39.55
61554;BME280;47425;51.976;5.326;2023-05-29T11:50:31;102449.69;;;17.82;39.50
61554;BME280;47425;51.976;5.326;2023-05-29T11:53:02;102454.94;;;17.85;38.90
61554;BME280;47425;51.976;5.326;2023-05-29T11:55:30;102443.03;;;18.03;40.50
61554;BME280;47425;51.976;5.326;2023-05-29T11:57:58;102448.03;;;18.14;39.62
61554;BME280;47425;51.976;5.326;2023-05-29T12:00:26;102451.53;;;18.14;38.23
61554;BME280;47425;51.976;5.326;2023-05-29T12:02:58;102458.25;;;17.94;37.91
61554;BME280;47425;51.976;5.326;2023-05-29T12:05:32;102463.56;;;17.94;39.64
61554;BME280;47425;51.976;5.326;2023-05-29T12:08:01;102464.75;;;18.17;39.05
61554;BME280;47425;51.976;5.326;2023-05-29T12:10:30;102453.16;;;18.53;38.80
61554;BME280;47425;51.976;5.326;2023-05-29T12:12:59;102458.50;;;18.83;37.00
61554;BME280;47425;51.976;5.326;2023-05-29T12:15:28;102460.41;;;19.09;36.83
61554;BME280;47425;51.976;5.326;2023-05-29T12:17:55;102454.91;;;18.54;37.57
61554;BME280;47425;51.976;5.326;2023-05-29T12:20:25;102438.28;;;18.47;37.77
61554;BME280;47425;51.976;5.326;2023-05-29T12:22:59;102442.44;;;18.57;38.15
61554;BME280;47425;51.976;5.326;2023-05-29T12:25:27;102452.25;;;18.54;36.62
61554;BME280;47425;51.976;5.326;2023-05-29T12:27:55;102447.91;;;18.51;37.23
61554;BME280;47425;51.976;5.326;2023-05-29T12:30:25;102442.88;;;18.72;36.63
61554;BME280;47425;51.976;5.326;2023-05-29T12:32:52;102446.34;;;18.44;37.22
61554;BME280;47425;51.976;5.326;2023-05-29T12:35:21;102439.59;;;18.64;37.66
61554;BME280;47425;51.976;5.326;2023-05-29T12:37:53;102441.63;;;18.54;37.81
61554;BME280;47425;51.976;5.326;2023-05-29T12:40:24;102432.94;;;18.49;38.39
61554;BME280;47425;51.976;5.326;2023-05-29T12:42:55;102443.50;;;18.50;37.68
61554;BME280;47425;51.976;5.326;2023-05-29T12:45:24;102432.78;;;18.22;37.46
61554;BME280;47425;51.976;5.326;2023-05-29T12:47:54;102440.22;;;18.07;37.22
61554;BME280;47425;51.976;5.326;2023-05-29T12:50:22;102438.34;;;18.13;38.47
61554;BME280;47425;51.976;5.326;2023-05-29T12:52:57;102438.22;;;18.17;38.31
61554;BME280;47425;51.976;5.326;2023-05-29T12:58:34;102456.25;;;18.37;38.15
61554;BME280;47425;51.976;5.326;2023-05-29T13:01:00;102458.97;;;18.34;37.75
61554;BME280;47425;51.976;5.326;2023-05-29T13:03:27;102450.50;;;18.53;37.45
61554;BME280;47425;51.976;5.326;2023-05-29T13:05:54;102439.28;;;18.43;37.16
61554;BME280;47425;51.976;5.326;2023-05-29T13:08:22;102448.75;;;18.20;38.27